This is the latest recevied weather packets stored in our database for station/object KD4EED. If no packets are shown the sender has not sent any weather packets the latest 1 day(s).
| Time | Temp. | Humidity | Pressure | Rain* | Wind** | Luminosity | Snow |
|---|---|---|---|---|---|---|---|
| 1778082689 | 15° C | 82% | 1016 hPa | - | - | 43 W/m² | - |
| 1778080644 | 14.44° C | 84% | 1016.1 hPa | - | - | 37 W/m² | - |
| 1778079127 | 13.33° C | 88% | 1016.2 hPa | - | - | 28 W/m² | - |
| 1778078521 | 12.78° C | 88% | 1016.2 hPa | - | - | 26 W/m² | - |
| 1778078219 | 12.78° C | 89% | 1016.2 hPa | - | - | 26 W/m² | - |
| 1778077615 | 12.22° C | 90% | 1015.9 hPa | - | - | 23 W/m² | - |
| 1778076708 | 11.67° C | 91% | 1015.9 hPa | - | - | 20 W/m² | - |
| 1778076405 | 11.67° C | 91% | 1015.8 hPa | - | - | 19 W/m² | - |
| 1778073070 | 10.56° C | 91% | 1015.8 hPa | - | - | 4 W/m² | - |
| 1778072163 | 10.56° C | 91% | 1015.4 hPa | - | - | 1 W/m² | - |
| 1778070347 | 10.56° C | 90% | 1015.1 hPa | - | - | 0 W/m² | - |
| 1778069137 | 10.56° C | 90% | 1014.8 hPa | - | - | 0 W/m² | - |
| 1778067927 | 10.56° C | 89% | 1014.8 hPa | - | - | 0 W/m² | - |
| 1778067626 | 10.56° C | 90% | 1014.8 hPa | - | - | 0 W/m² | - |
| 1778067323 | 10.56° C | 90% | 1014.5 hPa | - | - | 0 W/m² | - |
| 1778065809 | 11.11° C | 90% | 1014.7 hPa | - | - | 0 W/m² | - |
| 1778065507 | 11.11° C | 90% | 1014.7 hPa | - | - | 0 W/m² | - |
| 1778064597 | 11.11° C | 89% | 1014.8 hPa | - | - | 0 W/m² | - |
| 1778064295 | 11.11° C | 89% | 1014.8 hPa | - | - | 0 W/m² | - |
| 1778063993 | 11.11° C | 88% | 1014.8 hPa | - | - | 0 W/m² | - |
| 1778062478 | 11.11° C | 88% | 1014.9 hPa | - | - | 0 W/m² | - |
| 1778060965 | 11.67° C | 88% | 1014.7 hPa | - | - | 0 W/m² | - |
| 1778060059 | 11.67° C | 87% | 1014.9 hPa | - | - | 0 W/m² | - |
| 1778058849 | 11.67° C | 87% | 1014.9 hPa | - | - | 0 W/m² | - |
| 1778057940 | 11.67° C | 85% | 1015.1 hPa | - | - | 0 W/m² | - |
* Rain since midnight (hover to see other rain measurements)
** Current wind speed in m/s (hover to see current wind gust speed)